createdAt,value
2019-06-20T00:00:35.645Z,5.60
2019-06-20T00:01:35.877Z,9.00
2019-06-20T00:02:36.108Z,7.60
2019-06-20T00:03:36.340Z,10.20
2019-06-20T00:04:36.579Z,16.60
2019-06-20T00:05:36.805Z,16.80
2019-06-20T00:06:37.042Z,20.00
2019-06-20T00:07:37.274Z,12.70
2019-06-20T00:08:37.503Z,12.30
2019-06-20T00:09:37.735Z,12.50
2019-06-20T00:10:37.965Z,12.80
2019-06-20T00:11:38.198Z,13.70
2019-06-20T00:12:38.433Z,11.40
2019-06-20T00:13:38.661Z,12.00
2019-06-20T00:14:38.895Z,12.40
2019-06-20T00:15:39.123Z,14.20
2019-06-20T00:16:39.355Z,16.00
2019-06-20T00:17:39.586Z,16.10
2019-06-20T00:18:39.820Z,15.80
2019-06-20T00:19:40.050Z,15.40
2019-06-20T00:20:40.294Z,12.50
2019-06-20T00:21:40.513Z,15.60
2019-06-20T00:22:40.746Z,12.80
2019-06-20T00:23:40.973Z,10.50
2019-06-20T00:24:41.207Z,14.00
2019-06-20T00:25:41.437Z,14.10
2019-06-20T00:26:41.670Z,12.00
2019-06-20T00:27:41.902Z,12.80
2019-06-20T00:28:42.134Z,13.70
2019-06-20T00:29:42.379Z,12.20
2019-06-20T00:30:42.595Z,9.70
2019-06-20T00:31:42.828Z,9.20
2019-06-20T00:32:43.057Z,10.80
2019-06-20T00:33:43.290Z,11.90
2019-06-20T00:34:43.521Z,11.00
2019-06-20T00:35:43.811Z,12.70
2019-06-20T00:36:43.989Z,12.70
2019-06-20T00:37:44.221Z,5.60
2019-06-20T00:38:44.457Z,6.10
2019-06-20T00:39:44.686Z,6.50
2019-06-20T00:40:44.914Z,10.00
2019-06-20T00:41:45.147Z,11.00
2019-06-20T00:42:45.379Z,10.10
2019-06-20T00:43:45.618Z,10.30
2019-06-20T00:44:45.844Z,9.30
2019-06-20T00:45:46.076Z,11.10
2019-06-20T00:46:46.308Z,11.90
2019-06-20T00:47:46.540Z,11.60
2019-06-20T00:51:53.338Z,9.50
2019-06-20T00:52:53.571Z,7.80
2019-06-20T00:53:53.799Z,8.70
2019-06-20T00:54:54.032Z,7.70
2019-06-20T00:55:54.261Z,6.00
2019-06-20T00:56:54.495Z,5.80
2019-06-20T00:57:54.726Z,5.80
2019-06-20T00:58:54.958Z,6.00
2019-06-20T00:59:55.211Z,6.10
2019-06-20T01:00:55.419Z,6.00
2019-06-20T01:01:55.751Z,7.80
2019-06-20T01:02:55.889Z,20.60
2019-06-20T01:03:56.115Z,14.80
2019-06-20T01:04:56.345Z,7.30
2019-06-20T01:05:56.576Z,8.30
2019-06-20T01:06:56.809Z,6.90
2019-06-20T01:07:57.037Z,6.00
2019-06-20T01:08:57.268Z,10.70
2019-06-20T01:09:57.521Z,8.90
2019-06-20T01:10:57.740Z,6.70
2019-06-20T01:11:57.970Z,22.10
2019-06-20T01:12:58.206Z,22.70
2019-06-20T01:13:58.434Z,25.60
2019-06-20T01:14:58.664Z,19.50
2019-06-20T01:15:58.895Z,21.40
2019-06-20T01:16:59.124Z,18.70
2019-06-20T01:17:59.350Z,20.50
2019-06-20T01:18:59.581Z,21.80
2019-06-20T01:19:59.811Z,25.10
2019-06-20T01:21:00.043Z,18.50
2019-06-20T01:22:00.276Z,22.00
2019-06-20T01:23:00.506Z,9.80
2019-06-20T01:24:00.736Z,20.20
2019-06-20T01:25:00.966Z,18.50
2019-06-20T01:26:01.197Z,8.50
2019-06-20T01:27:01.427Z,22.00
2019-06-20T01:28:01.659Z,22.80
2019-06-20T01:29:01.892Z,18.70
2019-06-20T01:30:02.123Z,18.10
2019-06-20T01:31:02.356Z,6.90
2019-06-20T01:32:02.584Z,21.10
2019-06-20T01:33:02.826Z,24.20
2019-06-20T01:34:03.051Z,9.90
2019-06-20T01:35:03.279Z,12.10
2019-06-20T01:36:03.508Z,9.20
2019-06-20T01:37:03.739Z,6.20
2019-06-20T01:38:03.969Z,8.20
2019-06-20T01:39:04.211Z,6.80
2019-06-20T01:40:04.431Z,12.30
2019-06-20T01:41:06.169Z,16.60
2019-06-20T01:42:04.892Z,18.90
2019-06-20T01:43:05.125Z,10.90
2019-06-20T01:44:05.361Z,20.50
2019-06-20T01:45:05.584Z,19.60
2019-06-20T01:46:05.811Z,17.30
2019-06-20T01:47:06.043Z,13.00
2019-06-20T01:48:06.271Z,19.20
2019-06-20T01:49:06.505Z,16.20
2019-06-20T01:50:06.735Z,14.90
2019-06-20T01:51:06.965Z,13.70
2019-06-20T01:52:07.201Z,16.30
2019-06-20T01:53:07.425Z,16.10
2019-06-20T01:54:07.662Z,6.30
2019-06-20T01:55:07.897Z,10.10
2019-06-20T01:56:08.136Z,5.80
2019-06-20T01:57:08.358Z,6.10
2019-06-20T01:58:08.590Z,9.40
2019-06-20T01:59:08.818Z,17.40
2019-06-20T02:00:09.056Z,16.20
2019-06-20T02:01:09.283Z,15.60
2019-06-20T02:02:09.520Z,14.60
2019-06-20T02:03:09.774Z,12.90
2019-06-20T02:04:09.975Z,16.70
2019-06-20T02:05:10.217Z,16.30
2019-06-20T02:06:10.439Z,15.10
2019-06-20T02:07:10.683Z,12.00
2019-06-20T02:08:10.901Z,13.80
2019-06-20T02:09:11.137Z,13.90
2019-06-20T02:10:11.366Z,12.20
2019-06-20T02:11:11.595Z,14.00
2019-06-20T02:12:11.823Z,10.90
2019-06-20T02:13:12.057Z,10.80
2019-06-20T02:14:12.285Z,9.20
2019-06-20T02:15:12.520Z,10.30
2019-06-20T02:16:12.744Z,10.20
2019-06-20T02:17:12.974Z,9.50
2019-06-20T02:18:13.207Z,8.90
2019-06-20T02:19:13.437Z,10.30
2019-06-20T02:20:13.667Z,8.30
2019-06-20T02:21:13.902Z,9.00
2019-06-20T02:22:14.128Z,7.70
2019-06-20T02:23:14.362Z,7.00
2019-06-20T02:24:14.599Z,9.90
2019-06-20T02:25:14.837Z,8.30
2019-06-20T02:26:15.062Z,8.90
2019-06-20T02:27:15.291Z,6.00
2019-06-20T02:28:15.524Z,6.00
2019-06-20T02:29:15.755Z,6.40
2019-06-20T02:30:15.993Z,5.80
2019-06-20T02:31:16.221Z,7.30
2019-06-20T02:32:16.442Z,7.00
2019-06-20T02:33:16.677Z,7.40
2019-06-20T02:34:16.904Z,6.70
2019-06-20T02:35:17.138Z,6.70
2019-06-20T02:36:17.368Z,5.70
2019-06-20T02:37:17.600Z,6.00
2019-06-20T02:38:17.831Z,6.20
2019-06-20T02:39:18.073Z,6.40
2019-06-20T02:40:18.292Z,5.60
2019-06-20T02:41:18.525Z,6.10
2019-06-20T02:42:18.755Z,6.80
2019-06-20T02:43:18.990Z,7.50
2019-06-20T02:44:29.952Z,6.40
2019-06-20T02:45:19.458Z,6.90
2019-06-20T02:46:19.684Z,6.70
2019-06-20T02:47:19.912Z,4.50
2019-06-20T02:48:20.143Z,4.10
2019-06-20T02:49:20.375Z,4.00
2019-06-20T02:50:20.609Z,4.50
2019-06-20T02:51:20.842Z,4.50
2019-06-20T02:52:21.082Z,4.30
2019-06-20T02:53:21.306Z,4.90
2019-06-20T02:54:21.534Z,5.30
2019-06-20T02:55:21.773Z,5.40
2019-06-20T02:56:21.991Z,5.80
2019-06-20T02:57:22.226Z,5.50
2019-06-20T02:58:22.462Z,7.00
2019-06-20T02:59:22.684Z,6.80
2019-06-20T03:00:22.915Z,6.30
2019-06-20T03:01:23.129Z,6.70
2019-06-20T03:02:23.364Z,6.80
2019-06-20T03:03:23.595Z,7.10
2019-06-20T03:04:23.822Z,6.50
2019-06-20T03:05:24.071Z,6.20
2019-06-20T03:06:24.283Z,6.80
2019-06-20T03:07:24.527Z,6.70
2019-06-20T03:08:24.758Z,6.80
2019-06-20T03:09:24.991Z,6.20
2019-06-20T03:10:25.220Z,6.40
2019-06-20T03:11:25.449Z,7.00
2019-06-20T03:12:25.678Z,6.60
2019-06-20T03:13:25.910Z,7.00
2019-06-20T03:14:26.143Z,6.30
2019-06-20T03:15:26.373Z,6.20
2019-06-20T03:16:26.602Z,6.50
2019-06-20T03:17:26.833Z,5.10
2019-06-20T03:18:27.064Z,6.60
2019-06-20T03:19:27.299Z,6.30
2019-06-20T03:20:27.527Z,6.20
2019-06-20T03:21:27.762Z,5.10
2019-06-20T03:22:27.991Z,4.70
2019-06-20T03:23:28.225Z,5.20
2019-06-20T03:24:28.455Z,6.20
2019-06-20T03:25:28.687Z,5.80
2019-06-20T03:26:28.911Z,5.30
2019-06-20T03:27:29.145Z,5.30
2019-06-20T03:28:29.375Z,4.90
2019-06-20T03:29:29.608Z,5.20
2019-06-20T03:30:29.929Z,5.20
2019-06-20T03:31:30.070Z,4.70
2019-06-20T03:32:30.300Z,4.90
2019-06-20T03:33:30.534Z,5.40
2019-06-20T03:34:30.763Z,5.10
2019-06-20T03:35:30.997Z,5.40
2019-06-20T03:36:31.225Z,5.50
2019-06-20T03:37:31.455Z,6.00
2019-06-20T03:38:31.689Z,5.50
2019-06-20T03:39:31.929Z,5.10
2019-06-20T03:40:32.158Z,5.30
2019-06-20T03:41:32.383Z,5.40
2019-06-20T03:42:32.609Z,4.80
2019-06-20T03:43:32.843Z,4.80
2019-06-20T03:44:33.070Z,5.50
2019-06-20T03:45:33.302Z,5.40
2019-06-20T03:46:33.535Z,5.30
2019-06-20T03:47:33.764Z,5.00
2019-06-20T03:48:33.995Z,5.50
2019-06-20T03:49:34.225Z,5.20
2019-06-20T03:50:34.456Z,5.10
2019-06-20T03:51:34.685Z,5.20
2019-06-20T03:52:34.921Z,5.30
2019-06-20T03:53:35.151Z,4.90
2019-06-20T03:54:35.382Z,4.90
2019-06-20T03:55:35.621Z,4.70
2019-06-20T03:56:35.848Z,4.90
2019-06-20T03:57:36.079Z,5.00
2019-06-20T03:58:36.310Z,4.80
2019-06-20T03:59:36.544Z,5.30
2019-06-20T04:00:36.775Z,4.70
2019-06-20T04:01:37.005Z,4.50
2019-06-20T04:02:37.239Z,4.90
2019-06-20T04:03:37.485Z,4.90
2019-06-20T04:04:37.706Z,4.50
2019-06-20T04:05:37.952Z,4.30
2019-06-20T04:06:38.180Z,4.50
2019-06-20T04:07:38.396Z,4.70
2019-06-20T04:08:38.629Z,4.40
2019-06-20T04:09:38.857Z,4.80
2019-06-20T04:10:39.093Z,4.50
2019-06-20T04:11:39.324Z,4.60
2019-06-20T04:12:39.558Z,4.70
2019-06-20T04:13:39.792Z,4.60
2019-06-20T04:14:40.019Z,4.60
2019-06-20T04:15:40.258Z,4.30
2019-06-20T04:16:40.479Z,5.20
2019-06-20T04:17:40.712Z,4.30
2019-06-20T04:18:40.942Z,4.70
2019-06-20T04:19:41.177Z,4.40
2019-06-20T04:20:41.413Z,4.80
2019-06-20T04:21:41.640Z,4.50
2019-06-20T04:22:41.869Z,4.40
2019-06-20T04:23:42.119Z,4.10
2019-06-20T04:24:42.368Z,4.50
2019-06-20T04:25:42.598Z,4.50
2019-06-20T04:26:42.833Z,4.40
2019-06-20T04:27:43.061Z,4.10
2019-06-20T04:28:43.297Z,4.20
2019-06-20T04:29:43.525Z,4.50
2019-06-20T04:30:43.758Z,3.90
2019-06-20T04:31:43.989Z,4.20
2019-06-20T04:32:44.226Z,4.20
2019-06-20T04:33:44.458Z,3.70
2019-06-20T04:34:44.685Z,4.40
2019-06-20T04:35:44.915Z,4.10
2019-06-20T04:36:47.993Z,3.40
2019-06-20T04:37:45.378Z,4.30
2019-06-20T04:38:45.617Z,3.50
2019-06-20T04:39:45.843Z,3.80
2019-06-20T04:40:46.073Z,3.80
2019-06-20T04:41:46.305Z,4.10
2019-06-20T04:42:46.539Z,4.60
2019-06-20T04:43:46.770Z,3.90
2019-06-20T04:44:47.001Z,3.40
2019-06-20T04:45:47.239Z,4.60
2019-06-20T04:46:47.459Z,3.60
2019-06-20T04:47:47.704Z,4.10
2019-06-20T04:48:47.930Z,3.80
2019-06-20T04:49:48.163Z,3.60
2019-06-20T04:50:48.400Z,3.80
2019-06-20T04:51:48.631Z,4.10
2019-06-20T04:52:48.863Z,3.90
2019-06-20T04:53:49.096Z,4.10
2019-06-20T04:54:49.337Z,3.60
2019-06-20T04:55:49.558Z,3.60
2019-06-20T04:56:49.793Z,3.40
2019-06-20T04:57:50.052Z,3.90
2019-06-20T04:58:50.257Z,3.70
2019-06-20T04:59:50.491Z,3.40
2019-06-20T05:00:50.725Z,3.70
2019-06-20T05:01:50.958Z,3.60
2019-06-20T05:02:51.190Z,4.00
2019-06-20T05:03:51.425Z,4.00
2019-06-20T05:04:51.658Z,3.60
2019-06-20T05:05:51.892Z,3.40
2019-06-20T05:06:52.131Z,3.50
2019-06-20T05:07:52.360Z,3.30
2019-06-20T05:08:52.594Z,3.60
2019-06-20T05:09:52.826Z,3.40
2019-06-20T05:10:53.059Z,2.80
2019-06-20T05:11:53.298Z,3.50
2019-06-20T05:12:55.937Z,3.30
2019-06-20T05:13:53.762Z,3.80
2019-06-20T05:14:53.998Z,3.20
2019-06-20T05:15:54.229Z,3.30
2019-06-20T05:16:54.474Z,3.40
2019-06-20T05:17:54.698Z,3.30
2019-06-20T05:18:54.992Z,3.40
2019-06-20T05:19:55.167Z,3.30
2019-06-20T05:20:55.402Z,3.60
2019-06-20T05:21:55.638Z,3.40
2019-06-20T05:22:55.876Z,3.10
2019-06-20T05:23:56.110Z,3.60
2019-06-20T05:24:56.391Z,3.60
2019-06-20T05:25:56.578Z,3.30
2019-06-20T05:26:56.819Z,3.40
2019-06-20T05:27:57.052Z,3.60
2019-06-20T05:28:57.301Z,3.70
2019-06-20T05:29:57.527Z,3.10
2019-06-20T05:30:57.760Z,3.20
2019-06-20T05:31:58.013Z,3.30
2019-06-20T05:32:58.232Z,3.70
2019-06-20T05:33:58.466Z,3.10
2019-06-20T05:35:02.647Z,3.50
2019-06-20T05:35:58.941Z,3.60
2019-06-20T05:36:59.180Z,3.80
2019-06-20T05:37:59.467Z,3.90
2019-06-20T05:38:59.699Z,4.10
2019-06-20T05:39:59.931Z,3.20
2019-06-20T05:41:00.170Z,3.10
2019-06-20T05:42:00.437Z,3.20
2019-06-20T05:43:00.695Z,3.50
2019-06-20T05:44:00.930Z,3.30
2019-06-20T05:45:01.171Z,3.60
2019-06-20T05:46:09.503Z,3.60
2019-06-20T05:47:11.896Z,3.30
2019-06-20T05:48:01.889Z,3.30
2019-06-20T05:49:02.246Z,3.20
2019-06-20T05:50:02.356Z,3.20
2019-06-20T05:51:02.621Z,3.10
2019-06-20T05:52:02.838Z,2.90
2019-06-20T05:53:03.149Z,3.20
2019-06-20T05:54:03.293Z,2.80
2019-06-20T05:55:03.542Z,3.00
2019-06-20T05:56:03.766Z,3.30
2019-06-20T05:57:04.775Z,3.20
2019-06-20T05:58:04.242Z,2.90
2019-06-20T05:59:04.476Z,3.10
2019-06-20T06:00:04.716Z,3.10
2019-06-20T06:01:04.957Z,3.10
2019-06-20T06:02:05.195Z,3.00
2019-06-20T06:03:07.081Z,2.90
2019-06-20T06:04:05.661Z,3.30
2019-06-20T06:05:05.900Z,3.20
2019-06-20T06:06:06.142Z,3.10
2019-06-20T06:07:06.370Z,3.20
2019-06-20T06:08:06.613Z,3.30
2019-06-20T06:09:06.867Z,3.00
2019-06-20T06:10:07.091Z,3.10
2019-06-20T06:11:07.319Z,3.00
2019-06-20T06:12:07.557Z,3.00
2019-06-20T06:13:07.792Z,3.00
2019-06-20T06:14:08.038Z,3.90
2019-06-20T06:15:08.264Z,3.10
2019-06-20T06:16:25.134Z,3.90
2019-06-20T06:17:08.738Z,3.70
2019-06-20T06:18:08.977Z,3.70
2019-06-20T06:19:09.210Z,3.40
2019-06-20T06:20:09.447Z,3.70
2019-06-20T06:21:09.684Z,3.90
2019-06-20T06:22:09.920Z,3.40
2019-06-20T06:23:10.169Z,3.80
2019-06-20T06:24:10.401Z,3.70
2019-06-20T06:25:10.643Z,3.80
2019-06-20T06:26:10.867Z,3.60
2019-06-20T06:27:11.168Z,3.30
2019-06-20T06:28:12.512Z,3.30
2019-06-20T06:29:11.524Z,3.30
2019-06-20T06:30:11.759Z,3.70
2019-06-20T06:31:11.994Z,3.00
2019-06-20T06:32:12.231Z,2.90
2019-06-20T06:33:12.470Z,2.80
2019-06-20T06:34:12.708Z,2.90
2019-06-20T06:35:12.945Z,3.10
2019-06-20T06:36:13.182Z,3.30
2019-06-20T06:37:13.427Z,3.10
2019-06-20T06:38:13.666Z,2.60
2019-06-20T06:39:13.911Z,2.70
2019-06-20T06:40:14.145Z,2.70
2019-06-20T06:41:14.482Z,2.80
2019-06-20T06:42:14.759Z,2.60
2019-06-20T06:43:14.819Z,2.80
2019-06-20T06:44:15.058Z,2.70
2019-06-20T06:45:15.298Z,2.80
2019-06-20T06:46:15.534Z,2.70
2019-06-20T06:47:15.767Z,2.60
2019-06-20T06:48:16.012Z,2.70
2019-06-20T06:49:16.251Z,2.50
2019-06-20T06:50:16.538Z,2.60
2019-06-20T06:51:16.713Z,2.50
2019-06-20T06:52:16.948Z,2.80
2019-06-20T06:53:17.222Z,2.80
2019-06-20T06:54:17.423Z,2.60
2019-06-20T06:55:17.661Z,2.60
2019-06-20T06:56:17.897Z,2.60
2019-06-20T06:57:18.141Z,2.80
2019-06-20T06:58:18.376Z,2.50
2019-06-20T06:59:18.613Z,2.60
2019-06-20T07:00:18.842Z,2.40
2019-06-20T07:01:19.213Z,2.60
2019-06-20T07:02:19.505Z,2.30
2019-06-20T07:03:19.563Z,2.20
2019-06-20T07:04:19.800Z,2.80
2019-06-20T07:05:20.034Z,2.40
2019-06-20T07:06:20.273Z,2.70
2019-06-20T07:07:20.507Z,2.50
2019-06-20T07:08:20.745Z,2.50
2019-06-20T07:09:20.982Z,2.40
2019-06-20T07:10:21.218Z,2.40
2019-06-20T07:11:21.457Z,2.40
2019-06-20T07:12:21.693Z,2.70
2019-06-20T07:13:21.930Z,2.40
2019-06-20T07:14:22.173Z,2.60
2019-06-20T07:15:22.408Z,2.60
2019-06-20T07:16:22.657Z,2.40
2019-06-20T07:17:22.882Z,2.50
2019-06-20T07:18:23.121Z,2.70
2019-06-20T07:19:23.357Z,2.50
2019-06-20T07:20:23.592Z,2.60
2019-06-20T07:21:23.834Z,2.70
2019-06-20T07:22:24.066Z,5.20
2019-06-20T07:23:24.307Z,6.60
2019-06-20T07:24:24.543Z,6.80
2019-06-20T07:25:24.774Z,12.00
2019-06-20T07:26:25.009Z,9.80
2019-06-20T07:27:25.244Z,9.60
2019-06-20T07:28:25.476Z,7.00
2019-06-20T07:29:25.718Z,4.90
2019-06-20T07:30:25.954Z,8.80
2019-06-20T07:31:26.191Z,4.20
2019-06-20T07:32:26.433Z,28.90
2019-06-20T07:33:26.663Z,6.10
2019-06-20T07:34:26.900Z,5.90
2019-06-20T07:35:27.134Z,4.10
2019-06-20T07:36:27.373Z,4.60
2019-06-20T07:37:27.606Z,4.10
2019-06-20T07:38:27.843Z,3.30
2019-06-20T07:39:28.078Z,3.60
2019-06-20T07:40:28.319Z,3.90
2019-06-20T07:41:28.552Z,3.60
2019-06-20T07:42:28.804Z,3.40
2019-06-20T07:43:29.021Z,3.50
2019-06-20T07:44:29.254Z,3.10
2019-06-20T07:45:29.513Z,4.10
2019-06-20T07:46:29.724Z,3.20
2019-06-20T07:47:29.956Z,3.80
2019-06-20T07:48:30.186Z,3.10
2019-06-20T07:49:30.421Z,3.40
2019-06-20T07:50:30.660Z,4.30
2019-06-20T07:51:30.897Z,3.40
2019-06-20T07:52:31.123Z,3.20
2019-06-20T07:53:31.361Z,3.90
2019-06-20T07:54:31.617Z,4.10
2019-06-20T07:55:31.841Z,3.10
2019-06-20T07:56:32.076Z,2.90
2019-06-20T07:57:32.311Z,3.10
2019-06-20T07:58:32.547Z,3.80
2019-06-20T07:59:32.781Z,2.90
2019-06-20T08:00:33.036Z,3.10
2019-06-20T08:01:33.250Z,3.20
2019-06-20T08:02:33.487Z,3.40
2019-06-20T08:03:33.779Z,3.30
2019-06-20T08:04:33.955Z,3.30
2019-06-20T08:05:34.202Z,3.60
2019-06-20T08:06:34.434Z,3.50
2019-06-20T08:07:34.656Z,3.50
2019-06-20T08:08:34.888Z,3.90
2019-06-20T08:09:44.686Z,3.60
2019-06-20T08:10:35.353Z,3.90
2019-06-20T08:11:35.598Z,3.40
2019-06-20T08:12:35.805Z,3.30
2019-06-20T08:13:36.054Z,4.10
2019-06-20T08:14:36.302Z,3.50
2019-06-20T08:15:36.506Z,3.40
2019-06-20T08:16:36.740Z,3.30
2019-06-20T08:17:36.976Z,3.10
2019-06-20T08:18:37.209Z,3.30
2019-06-20T08:19:37.440Z,3.70
2019-06-20T08:20:37.683Z,3.40
2019-06-20T08:21:37.904Z,3.60
2019-06-20T08:22:38.140Z,3.20
2019-06-20T08:23:38.372Z,3.40
2019-06-20T08:24:38.604Z,3.60
2019-06-20T08:25:38.840Z,4.20
2019-06-20T08:26:39.073Z,4.10
2019-06-20T08:27:39.308Z,6.80
2019-06-20T08:28:39.574Z,5.40
2019-06-20T08:29:39.847Z,5.20
2019-06-20T08:30:39.994Z,4.80
2019-06-20T08:31:40.226Z,4.50
2019-06-20T08:32:40.463Z,4.10
2019-06-20T08:33:40.695Z,3.80
2019-06-20T08:34:40.938Z,4.50
2019-06-20T08:35:41.168Z,3.80
2019-06-20T08:36:41.404Z,3.80
2019-06-20T08:37:41.655Z,4.20
2019-06-20T08:38:41.873Z,3.70
2019-06-20T08:39:42.109Z,3.90
2019-06-20T08:40:42.349Z,4.10
2019-06-20T08:41:42.576Z,3.50
2019-06-20T08:42:42.811Z,3.20
2019-06-20T08:43:43.045Z,3.70
2019-06-20T08:44:43.283Z,3.20
2019-06-20T08:45:43.514Z,3.00
2019-06-20T08:46:43.750Z,2.50
2019-06-20T08:47:43.983Z,2.90
2019-06-20T08:48:44.218Z,2.90
2019-06-20T08:49:44.507Z,2.70
2019-06-20T08:50:44.685Z,2.90
2019-06-20T08:51:44.922Z,2.50
2019-06-20T08:52:45.155Z,2.90
2019-06-20T08:53:45.389Z,2.40
2019-06-20T08:54:45.626Z,2.90
2019-06-20T08:55:45.860Z,2.90
2019-06-20T08:56:46.095Z,3.00
2019-06-20T08:57:46.337Z,2.60
2019-06-20T08:58:46.568Z,2.20
2019-06-20T08:59:46.804Z,2.30
2019-06-20T09:00:47.072Z,2.30
2019-06-20T09:01:47.271Z,1.80
2019-06-20T09:02:47.526Z,2.40
2019-06-20T09:03:47.742Z,2.00
2019-06-20T09:04:47.981Z,2.10
2019-06-20T09:05:48.211Z,1.90
2019-06-20T09:06:50.166Z,2.70
2019-06-20T09:07:48.684Z,2.30
2019-06-20T09:08:48.920Z,2.30
2019-06-20T09:09:49.153Z,1.90
2019-06-20T09:10:49.392Z,2.10
2019-06-20T09:11:49.655Z,2.20
2019-06-20T09:12:49.857Z,1.80
2019-06-20T09:13:50.092Z,2.00
2019-06-20T09:14:50.329Z,2.00
2019-06-20T09:15:50.561Z,2.00
2019-06-20T09:16:52.303Z,2.10
2019-06-20T09:17:52.945Z,2.10
2019-06-20T09:18:53.186Z,1.90
2019-06-20T09:19:51.665Z,2.10
2019-06-20T09:20:52.867Z,1.60
2019-06-20T09:21:53.918Z,2.10
2019-06-20T09:22:52.346Z,1.70
2019-06-20T09:23:53.848Z,2.10
2019-06-20T09:24:53.684Z,2.10
2019-06-20T09:25:52.932Z,2.30
2019-06-20T09:26:53.889Z,2.20
2019-06-20T09:27:54.355Z,1.80
2019-06-20T09:28:54.392Z,3.10
2019-06-20T09:29:54.388Z,4.70
2019-06-20T09:30:55.189Z,4.80
2019-06-20T09:31:55.431Z,3.90
2019-06-20T09:32:55.570Z,3.50
2019-06-20T09:33:55.814Z,3.30
2019-06-20T09:34:56.486Z,3.00
2019-06-20T09:35:55.611Z,2.80
2019-06-20T09:36:55.523Z,2.60
2019-06-20T09:37:57.068Z,2.80
2019-06-20T09:38:57.761Z,2.90
2019-06-20T09:39:57.229Z,2.40
2019-06-20T09:40:56.892Z,2.30
2019-06-20T09:41:56.703Z,2.30
2019-06-20T09:42:56.946Z,2.70
2019-06-20T09:43:58.477Z,2.70
2019-06-20T09:44:58.402Z,2.30
2019-06-20T09:45:58.398Z,1.80
2019-06-20T09:46:58.193Z,2.10
2019-06-20T09:47:58.349Z,1.90
2019-06-20T09:48:58.749Z,1.80
2019-06-20T09:49:59.037Z,1.90
2019-06-20T09:50:58.832Z,2.10
2019-06-20T09:51:59.070Z,2.10
2019-06-20T09:52:59.306Z,2.10
2019-06-20T09:53:59.541Z,1.90
2019-06-20T09:54:59.794Z,2.20
2019-06-20T09:56:00.034Z,1.80
2019-06-20T09:57:00.259Z,1.80
2019-06-20T09:58:00.488Z,1.90
2019-06-20T09:59:00.736Z,2.20
2019-06-20T10:00:09.696Z,2.00
2019-06-20T10:01:01.193Z,1.90
2019-06-20T10:02:01.576Z,1.90
2019-06-20T10:03:01.665Z,1.90
2019-06-20T10:04:01.912Z,2.00
2019-06-20T10:05:02.139Z,2.00
2019-06-20T10:06:12.928Z,1.90
2019-06-20T10:07:02.616Z,1.80
2019-06-20T10:08:02.862Z,1.90
2019-06-20T10:09:03.103Z,2.00
2019-06-20T10:10:03.348Z,1.90
2019-06-20T10:11:03.563Z,1.90
2019-06-20T10:12:03.805Z,2.20
2019-06-20T10:13:04.039Z,1.80
2019-06-20T10:14:04.275Z,1.80
2019-06-20T10:15:04.513Z,2.20
2019-06-20T10:16:04.766Z,1.70
2019-06-20T10:17:04.984Z,2.10
2019-06-20T10:18:05.215Z,1.90
2019-06-20T10:19:05.454Z,2.10
2019-06-20T10:20:05.690Z,2.30
2019-06-20T10:21:05.921Z,2.20
2019-06-20T10:22:06.161Z,1.90
2019-06-20T10:23:06.408Z,1.90
2019-06-20T10:24:06.660Z,2.00
2019-06-20T10:25:06.901Z,2.00
2019-06-20T10:26:07.134Z,2.00
2019-06-20T10:27:07.373Z,2.20
2019-06-20T10:28:07.608Z,2.20
2019-06-20T10:29:07.839Z,2.50
2019-06-20T10:30:14.240Z,1.70
2019-06-20T10:31:08.324Z,1.80
2019-06-20T10:32:08.549Z,2.00
2019-06-20T10:33:08.787Z,2.00
2019-06-20T10:34:09.025Z,2.20
2019-06-20T10:35:09.262Z,2.00
2019-06-20T10:36:09.514Z,1.70
2019-06-20T10:37:09.810Z,1.70
2019-06-20T10:38:09.946Z,2.10
2019-06-20T10:39:10.183Z,1.90
2019-06-20T10:40:10.421Z,1.70
2019-06-20T10:41:10.658Z,1.90
2019-06-20T10:42:10.894Z,1.70
2019-06-20T10:43:11.188Z,1.80
2019-06-20T10:44:11.303Z,1.70
2019-06-20T10:45:11.536Z,2.30
2019-06-20T10:46:11.772Z,2.20
2019-06-20T10:47:12.016Z,1.80
2019-06-20T10:48:12.254Z,2.00
2019-06-20T10:49:12.486Z,2.60
2019-06-20T10:50:12.730Z,2.60
2019-06-20T10:51:12.963Z,1.80
2019-06-20T10:52:13.198Z,2.20
2019-06-20T10:53:13.435Z,2.70
2019-06-20T10:54:13.691Z,4.70
2019-06-20T10:55:13.917Z,6.70
2019-06-20T10:56:14.157Z,4.60
2019-06-20T10:57:14.391Z,7.60
2019-06-20T10:58:14.623Z,7.50
2019-06-20T10:59:14.860Z,5.00
2019-06-20T11:00:29.731Z,5.10
2019-06-20T11:01:15.352Z,6.50
2019-06-20T11:02:15.600Z,4.60
2019-06-20T11:03:15.833Z,6.40
2019-06-20T11:04:16.067Z,5.10
2019-06-20T11:05:16.328Z,3.90
2019-06-20T11:06:16.556Z,3.90
2019-06-20T11:07:16.790Z,3.70
2019-06-20T11:08:17.024Z,3.20
2019-06-20T11:09:17.260Z,3.30
2019-06-20T11:10:17.492Z,2.20
2019-06-20T11:11:17.732Z,2.70
2019-06-20T11:12:17.958Z,2.40
2019-06-20T11:13:18.195Z,2.30
2019-06-20T11:14:18.430Z,3.10
2019-06-20T11:15:18.664Z,2.60
2019-06-20T11:16:18.897Z,2.20
2019-06-20T11:17:19.130Z,2.00
2019-06-20T11:18:19.368Z,1.70
2019-06-20T11:19:19.608Z,1.40
2019-06-20T11:20:19.844Z,1.80
2019-06-20T11:21:20.089Z,1.50
2019-06-20T11:22:20.313Z,1.60
2019-06-20T11:23:20.554Z,1.70
2019-06-20T11:24:20.801Z,1.50
2019-06-20T11:25:21.039Z,1.60
2019-06-20T11:26:21.273Z,1.60
2019-06-20T11:27:21.508Z,1.90
2019-06-20T11:28:21.746Z,4.00
2019-06-20T11:29:21.984Z,5.10
2019-06-20T11:30:22.218Z,4.40
2019-06-20T11:31:22.455Z,2.80
2019-06-20T11:32:22.688Z,2.60
2019-06-20T11:33:22.923Z,3.00
2019-06-20T11:34:23.276Z,4.30
2019-06-20T11:35:23.397Z,2.70
2019-06-20T11:36:23.631Z,2.80
2019-06-20T11:37:23.870Z,2.80
2019-06-20T11:38:24.153Z,2.60
2019-06-20T11:39:24.369Z,1.20
2019-06-20T11:40:24.595Z,1.30
2019-06-20T11:41:24.830Z,1.60
2019-06-20T11:42:25.078Z,1.30
2019-06-20T11:43:25.359Z,1.50
2019-06-20T11:44:25.568Z,1.40
2019-06-20T11:45:25.811Z,1.60
2019-06-20T11:46:26.034Z,1.50
2019-06-20T11:47:26.267Z,1.50
2019-06-20T11:48:26.505Z,1.70
2019-06-20T11:49:26.737Z,1.70
2019-06-20T11:50:26.974Z,1.70
2019-06-20T11:51:27.210Z,1.50
2019-06-20T11:52:27.451Z,1.50
2019-06-20T11:53:27.681Z,1.60
2019-06-20T11:54:27.914Z,1.80
2019-06-20T11:55:28.151Z,1.50
2019-06-20T11:56:28.392Z,1.50
2019-06-20T11:57:28.636Z,1.70
2019-06-20T11:58:28.880Z,1.90
2019-06-20T11:59:29.117Z,1.70
2019-06-20T12:00:29.360Z,1.50
2019-06-20T12:01:32.941Z,1.90
2019-06-20T12:02:29.847Z,1.90
2019-06-20T12:03:30.083Z,1.50
2019-06-20T12:04:30.330Z,1.60
2019-06-20T12:05:30.564Z,2.10
2019-06-20T12:06:30.803Z,1.90
2019-06-20T12:07:31.050Z,1.90
2019-06-20T12:08:31.279Z,1.60
2019-06-20T12:09:31.517Z,1.60
2019-06-20T12:10:31.753Z,1.60
2019-06-20T12:11:31.998Z,1.90
2019-06-20T12:12:32.219Z,1.70
2019-06-20T12:13:32.457Z,1.80
2019-06-20T12:14:32.699Z,1.50
2019-06-20T12:15:32.932Z,1.60
2019-06-20T12:16:33.165Z,1.90
2019-06-20T12:17:33.402Z,1.60
2019-06-20T12:18:33.637Z,1.80
2019-06-20T12:19:33.874Z,2.10
2019-06-20T12:20:34.114Z,1.80
2019-06-20T12:21:34.349Z,1.90
2019-06-20T12:22:34.585Z,1.80
2019-06-20T12:23:34.821Z,2.00
2019-06-20T12:24:35.080Z,1.40
2019-06-20T12:25:35.297Z,1.50
2019-06-20T12:26:35.535Z,1.80
2019-06-20T12:27:35.774Z,1.80
2019-06-20T12:28:36.008Z,2.00
2019-06-20T12:29:36.296Z,1.80
2019-06-20T12:30:36.532Z,1.40
2019-06-20T12:31:36.767Z,1.90
2019-06-20T12:32:37.001Z,1.20
2019-06-20T12:33:39.083Z,1.20
2019-06-20T12:34:38.886Z,1.20
2019-06-20T12:35:37.845Z,1.40
2019-06-20T12:36:39.131Z,1.30
2019-06-20T12:37:40.301Z,1.40
2019-06-20T12:38:39.800Z,1.30
2019-06-20T12:39:39.227Z,1.60
2019-06-20T12:40:40.565Z,1.50
2019-06-20T12:41:39.713Z,1.40
2019-06-20T12:42:41.823Z,1.40
2019-06-20T12:43:40.314Z,1.50
2019-06-20T12:44:40.166Z,1.50
2019-06-20T12:45:41.360Z,1.70
2019-06-20T12:46:40.990Z,1.80
2019-06-20T12:47:41.787Z,1.30
2019-06-20T12:48:41.249Z,1.60
2019-06-20T12:49:41.797Z,1.20
2019-06-20T12:50:41.911Z,1.50
2019-06-20T12:51:42.107Z,1.50
2019-06-20T12:52:42.588Z,1.30
2019-06-20T12:53:42.041Z,1.40
2019-06-20T12:54:43.307Z,1.60
2019-06-20T12:55:42.570Z,1.70
2019-06-20T12:56:43.939Z,1.30
2019-06-20T12:57:44.201Z,1.40
2019-06-20T12:58:44.503Z,1.40
2019-06-20T12:59:44.610Z,1.50
2019-06-20T13:00:44.800Z,1.50
2019-06-20T13:01:46.536Z,1.70
2019-06-20T13:02:45.462Z,1.50
2019-06-20T13:03:46.252Z,1.50
2019-06-20T13:04:45.987Z,1.60
2019-06-20T13:05:44.957Z,1.40
2019-06-20T13:06:45.117Z,1.60
2019-06-20T13:07:46.505Z,1.60
2019-06-20T13:08:45.587Z,1.20
2019-06-20T13:09:46.337Z,1.80
2019-06-20T13:10:46.234Z,1.70
2019-06-20T13:11:46.999Z,1.70
2019-06-20T13:12:46.590Z,1.80
2019-06-20T13:13:46.800Z,1.30
2019-06-20T13:14:47.576Z,1.50
2019-06-20T13:15:47.261Z,1.80
2019-06-20T13:16:48.159Z,1.30
2019-06-20T13:17:49.063Z,1.60
2019-06-20T13:18:48.342Z,1.70
2019-06-20T13:19:48.569Z,1.80
2019-06-20T13:20:48.573Z,1.80
2019-06-20T13:21:48.714Z,4.30